Time;durP1;ratioP1;P1;durP2;ratioP2;P2;SDS_P1;SDS_P2;PMS_P1;PMS_P2;Temp;Humidity;BMP_temperature;BMP_pressure;BME280_temperature;BME280_humidity;BME280_pressure;Samples;Min_cycle;Max_cycle;Signal;HPM_P1;HPM_P2
2023/09/06 00:00:53;;;;;;;4.60;3.10;;;;;;;19.57;79.25;102173.59;7393084;19;20014;-62
2023/09/06 00:03:21;;;;;;;5.30;2.85;;;;;;;19.54;79.29;102169.34;7393413;19;20015;-62
2023/09/06 00:05:49;;;;;;;6.53;3.03;;;;;;;19.53;78.81;102172.16;7393842;19;20029;-63
2023/09/06 00:08:16;;;;;;;5.47;3.10;;;;;;;19.58;78.90;102175.31;7394341;19;20039;-63
2023/09/06 00:10:44;;;;;;;5.03;2.80;;;;;;;19.59;79.16;102174.31;7393312;19;20370;-62
2023/09/06 00:13:13;;;;;;;6.20;3.03;;;;;;;19.58;78.47;102173.47;7393563;19;20109;-62
2023/09/06 00:15:42;;;;;;;6.05;2.85;;;;;;;19.57;78.65;102169.06;7394657;19;20018;-62
2023/09/06 00:18:10;;;;;;;5.32;2.75;;;;;;;19.51;78.98;102166.09;7394794;19;20062;-62
2023/09/06 00:20:38;;;;;;;5.32;3.30;;;;;;;19.52;78.79;102168.63;7391979;19;20014;-62
2023/09/06 00:23:08;;;;;;;5.60;2.97;;;;;;;19.50;78.99;102162.56;7391810;19;20028;-62
2023/09/06 00:25:37;;;;;;;4.70;3.25;;;;;;;19.36;78.86;102165.63;7394321;19;20039;-62
2023/09/06 00:28:06;;;;;;;8.73;3.95;;;;;;;19.07;80.36;102169.00;7393914;19;20018;-62
2023/09/06 00:30:35;;;;;;;5.70;3.20;;;;;;;19.02;80.79;102171.25;7394277;19;20464;-62
2023/09/06 00:33:05;;;;;;;4.35;3.05;;;;;;;19.12;80.35;102171.31;7392324;19;20078;-62
2023/09/06 00:35:33;;;;;;;5.13;3.20;;;;;;;19.22;79.42;102173.03;7394361;19;20113;-62
2023/09/06 00:38:01;;;;;;;4.57;2.58;;;;;;;19.26;79.26;102167.41;7393583;19;20044;-62
2023/09/06 00:40:29;;;;;;;4.60;2.88;;;;;;;19.24;79.18;102176.44;7391184;19;20370;-62
2023/09/06 00:43:01;;;;;;;5.25;3.20;;;;;;;19.07;79.70;102174.38;7390888;19;20448;-63
2023/09/06 00:45:36;;;;;;;5.53;2.80;;;;;;;19.04;80.05;102174.66;7394732;19;20028;-62
2023/09/06 00:48:06;;;;;;;5.72;2.97;;;;;;;19.16;79.54;102178.97;7391464;19;20029;-62
2023/09/06 00:50:35;;;;;;;5.35;2.78;;;;;;;19.21;79.05;102179.41;7392994;19;20492;-62
2023/09/06 00:53:05;;;;;;;5.10;3.17;;;;;;;19.22;79.14;102178.41;7392080;19;20385;-62
2023/09/06 00:55:41;;;;;;;5.18;2.88;;;;;;;18.97;79.85;102173.50;7391549;19;20014;-62
2023/09/06 00:58:09;;;;;;;6.57;3.25;;;;;;;18.83;80.58;102173.84;7391322;19;20490;-63
2023/09/06 01:00:36;;;;;;;10.00;3.47;;;;;;;18.83;80.53;102172.00;7392321;19;20031;-63
2023/09/06 01:03:04;;;;;;;6.63;3.47;;;;;;;18.86;80.59;102170.88;7388906;19;20010;-63
2023/09/06 01:05:40;;;;;;;5.80;3.53;;;;;;;18.81;80.56;102165.03;7392254;19;20028;-63
2023/09/06 01:08:12;;;;;;;6.30;3.17;;;;;;;18.85;80.62;102167.34;7392026;19;20021;-63
2023/09/06 01:10:39;;;;;;;4.70;3.13;;;;;;;19.01;79.77;102169.56;7390254;19;20089;-63
2023/09/06 01:13:07;;;;;;;5.88;3.50;;;;;;;19.09;79.59;102171.56;7390426;19;20412;-63
2023/09/06 01:15:36;;;;;;;6.85;3.20;;;;;;;19.12;79.29;102164.09;7387848;19;20461;-63
2023/09/06 01:18:06;;;;;;;5.38;2.85;;;;;;;19.14;78.80;102164.81;7392091;19;20018;-65
2023/09/06 01:20:42;;;;;;;5.13;3.10;;;;;;;19.20;78.50;102166.13;7392745;19;20035;-63
2023/09/06 01:23:46;;;;;;;5.18;2.97;;;;;;;19.16;77.95;102162.00;7392260;19;20023;-62
2023/09/06 01:26:15;;;;;;;7.57;4.07;;;;;;;18.85;79.43;102166.47;7388914;19;20031;-63
2023/09/06 01:28:43;;;;;;;6.05;3.28;;;;;;;18.67;80.62;102159.00;7390786;19;20022;-63
2023/09/06 01:31:10;;;;;;;5.78;3.22;;;;;;;18.59;80.99;102166.88;7392145;19;20043;-63
2023/09/06 01:33:39;;;;;;;7.22;3.00;;;;;;;18.52;80.91;102163.84;7390028;19;20029;-63
2023/09/06 01:36:07;;;;;;;5.85;3.45;;;;;;;18.46;81.29;102164.34;7391161;19;20022;-63
2023/09/06 01:38:34;;;;;;;6.85;3.63;;;;;;;18.47;80.98;102159.88;7391204;19;20015;-63
2023/09/06 01:41:03;;;;;;;5.82;3.78;;;;;;;18.49;81.01;102172.16;7390127;19;20026;-64
2023/09/06 01:43:31;;;;;;;7.20;3.30;;;;;;;18.55;80.81;102168.13;7389588;19;20033;-64
2023/09/06 01:45:58;;;;;;;7.32;3.53;;;;;;;18.69;80.06;102156.19;7392227;19;20015;-63
2023/09/06 01:48:26;;;;;;;6.80;3.70;;;;;;;18.80;79.41;102158.81;7391840;19;20082;-63
2023/09/06 01:50:55;;;;;;;9.50;3.67;;;;;;;18.81;79.71;102167.72;7391766;19;20133;-63
2023/09/06 01:53:22;;;;;;;5.22;3.30;;;;;;;18.79;79.63;102164.34;7389621;19;20011;-63
2023/09/06 01:55:50;;;;;;;5.00;3.30;;;;;;;18.70;79.47;102157.91;7390920;19;20516;-63
2023/09/06 01:58:18;;;;;;;6.18;3.00;;;;;;;18.70;79.30;102164.16;7389506;19;20022;-62
2023/09/06 02:00:45;;;;;;;6.15;3.20;;;;;;;18.70;79.10;102165.97;7391131;19;20015;-63
2023/09/06 02:03:16;;;;;;;4.78;3.20;;;;;;;18.63;79.33;102176.34;7390161;19;20039;-63
2023/09/06 02:05:44;;;;;;;6.10;3.08;;;;;;;18.70;79.13;102182.06;7390768;19;20141;-63
2023/09/06 02:08:12;;;;;;;6.13;3.60;;;;;;;18.68;78.68;102170.59;7390801;19;20378;-63
2023/09/06 02:10:40;;;;;;;6.53;3.45;;;;;;;18.64;78.58;102170.00;7389247;19;20047;-63
2023/09/06 02:13:08;;;;;;;6.43;3.03;;;;;;;18.59;78.67;102180.28;7390980;19;20477;-63
2023/09/06 02:15:36;;;;;;;5.30;2.88;;;;;;;18.55;79.20;102178.84;7397124;19;20022;-63
2023/09/06 02:18:04;;;;;;;7.63;3.30;;;;;;;18.55;79.13;102183.38;7397985;19;20011;-63
2023/09/06 02:20:32;;;;;;;8.23;3.75;;;;;;;18.58;79.14;102180.41;7397810;19;20476;-63
2023/09/06 02:22:59;;;;;;;7.85;3.33;;;;;;;18.57;79.10;102182.22;7396917;19;20425;-63
2023/09/06 02:25:31;;;;;;;5.40;3.38;;;;;;;18.60;79.04;102181.13;7396025;19;20342;-63
2023/09/06 02:28:07;;;;;;;7.10;3.88;;;;;;;18.56;79.08;102177.84;7397667;19;20014;-63
2023/09/06 02:30:36;;;;;;;6.20;3.60;;;;;;;18.52;79.07;102177.25;7397793;19;20027;-63
2023/09/06 02:33:04;;;;;;;5.60;3.30;;;;;;;18.52;79.52;102179.94;7396197;19;20022;-63
2023/09/06 02:35:40;;;;;;;8.07;3.92;;;;;;;18.56;79.14;102174.31;7397857;19;20026;-63
2023/09/06 02:38:12;;;;;;;9.77;4.10;;;;;;;18.59;79.02;102180.28;7397519;19;20022;-63
2023/09/06 02:40:42;;;;;;;9.65;4.38;;;;;;;18.23;80.35;102176.16;7397475;19;20123;-63
2023/09/06 02:43:14;;;;;;;7.75;4.38;;;;;;;17.97;81.59;102176.53;7393841;19;20030;-63
2023/09/06 02:45:49;;;;;;;6.13;4.00;;;;;;;18.12;81.12;102177.06;7397412;19;20022;-63
2023/09/06 02:48:18;;;;;;;8.20;3.78;;;;;;;18.31;79.81;102171.00;7396456;19;20047;-63
2023/09/06 02:50:46;;;;;;;6.15;3.58;;;;;;;18.39;79.29;102175.72;7395938;19;20019;-63
2023/09/06 02:53:19;;;;;;;5.50;3.28;;;;;;;18.46;79.09;102172.41;7394461;19;20116;-63
2023/09/06 02:55:51;;;;;;;8.25;3.42;;;;;;;18.45;78.65;102178.75;7398034;19;20239;-62
2023/09/06 02:58:23;;;;;;;5.97;3.53;;;;;;;18.31;79.08;102178.22;7397766;19;20529;-62
2023/09/06 03:01:05;;;;;;;6.80;3.40;;;;;;;18.05;80.01;102186.63;7400232;19;20082;-62
2023/09/06 03:03:34;;;;;;;6.13;3.40;;;;;;;18.11;80.01;102177.19;7395566;19;20018;-62
2023/09/06 03:06:04;;;;;;;4.78;3.33;;;;;;;18.08;80.03;102174.75;7400187;19;20034;-63
2023/09/06 03:08:32;;;;;;;6.15;3.30;;;;;;;18.17;79.88;102184.75;7396982;19;20488;-62
2023/09/06 03:11:00;;;;;;;5.90;3.20;;;;;;;18.19;79.47;102183.63;7396921;19;20024;-62
2023/09/06 03:13:28;;;;;;;4.47;3.03;;;;;;;18.25;79.00;102182.28;7394886;19;20488;-62
2023/09/06 03:15:57;;;;;;;8.80;3.50;;;;;;;18.17;79.20;102188.28;7396790;19;20078;-62
2023/09/06 03:18:24;;;;;;;5.60;3.55;;;;;;;17.95;79.89;102191.03;7395606;19;20033;-62
2023/09/06 03:20:55;;;;;;;6.05;3.17;;;;;;;17.72;81.21;102185.69;7396514;19;20019;-63
2023/09/06 03:23:24;;;;;;;6.35;3.10;;;;;;;17.85;80.77;102190.06;7393855;19;20088;-63
2023/09/06 03:25:57;;;;;;;5.75;3.30;;;;;;;18.03;80.02;102196.59;7393122;19;20480;-63
2023/09/06 03:28:25;;;;;;;4.88;3.40;;;;;;;18.13;79.51;102197.56;7396030;19;20362;-62
2023/09/06 03:30:58;;;;;;;5.18;3.20;;;;;;;18.12;79.28;102189.63;7395076;19;20368;-62
2023/09/06 03:33:28;;;;;;;7.15;3.47;;;;;;;18.03;79.47;102185.88;7392822;19;20014;-62
2023/09/06 03:35:56;;;;;;;5.10;3.17;;;;;;;17.95;79.80;102191.88;7395450;19;20035;-61
2023/09/06 03:38:25;;;;;;;5.47;3.40;;;;;;;18.07;79.53;102184.66;7395246;19;20029;-61
2023/09/06 03:40:55;;;;;;;7.38;3.78;;;;;;;17.93;80.20;102192.97;7395479;19;20051;-61
2023/09/06 03:43:30;;;;;;;6.22;3.75;;;;;;;17.79;80.68;102188.75;7390768;19;20039;-61
2023/09/06 03:46:04;;;;;;;6.68;3.72;;;;;;;17.61;81.43;102187.53;7395650;19;20378;-62
2023/09/06 03:48:32;;;;;;;7.15;3.67;;;;;;;17.80;80.94;102185.09;7395303;19;20022;-62
2023/09/06 03:51:00;;;;;;;6.80;3.35;;;;;;;17.99;79.49;102187.09;7395082;19;20035;-62
2023/09/06 03:53:29;;;;;;;6.90;3.40;;;;;;;18.05;79.35;102186.63;7391482;19;20402;-61
2023/09/06 03:55:57;;;;;;;8.18;3.47;;;;;;;18.02;78.95;102193.06;7394526;19;20492;-61
2023/09/06 03:58:27;;;;;;;3.80;2.75;;;;;;;17.91;79.11;102190.41;7393628;19;20015;-62
2023/09/06 04:00:56;;;;;;;4.82;2.88;;;;;;;17.92;78.60;102191.25;7394770;19;20023;-62
2023/09/06 04:03:26;;;;;;;6.38;3.30;;;;;;;17.90;78.45;102193.25;7390646;19;20104;-62
2023/09/06 04:05:55;;;;;;;7.88;3.17;;;;;;;17.88;78.48;102198.69;7395075;19;20022;-62
2023/09/06 04:08:25;;;;;;;5.85;3.20;;;;;;;17.90;78.41;102201.28;7394771;19;20011;-62
2023/09/06 04:10:53;;;;;;;7.43;3.10;;;;;;;17.81;78.68;102197.50;7394628;19;20393;-62
2023/09/06 04:13:20;;;;;;;5.70;3.20;;;;;;;17.79;78.69;102199.47;7391957;19;20491;-63
2023/09/06 04:15:49;;;;;;;5.40;3.10;;;;;;;17.87;78.45;102199.69;7391158;19;20050;-62
2023/09/06 04:18:18;;;;;;;4.97;3.30;;;;;;;17.72;78.50;102195.53;7394265;19;20028;-61
2023/09/06 04:20:48;;;;;;;7.40;3.42;;;;;;;17.49;79.75;102195.56;7396799;19;20480;-62
2023/09/06 04:23:16;;;;;;;6.72;3.10;;;;;;;17.63;79.50;102198.94;7389524;19;20018;-63
2023/09/06 04:25:46;;;;;;;6.13;3.42;;;;;;;17.63;79.43;102199.81;7393945;19;20353;-63
2023/09/06 04:28:16;;;;;;;5.70;3.30;;;;;;;17.70;79.36;102201.00;7394346;19;20090;-63
2023/09/06 04:30:47;;;;;;;5.00;3.00;;;;;;;17.68;79.19;102202.13;7393710;19;20082;-62
2023/09/06 04:33:15;;;;;;;5.65;3.10;;;;;;;17.69;79.07;102202.00;7392785;19;20014;-62
2023/09/06 04:35:46;;;;;;;5.22;2.80;;;;;;;17.71;78.66;102200.06;7392054;19;20014;-62
2023/09/06 04:38:17;;;;;;;6.88;3.30;;;;;;;17.75;78.86;102206.06;7391879;19;20039;-62
2023/09/06 04:40:46;;;;;;;6.47;3.05;;;;;;;17.76;78.87;102199.72;7393853;19;20023;-62
2023/09/06 04:43:18;;;;;;;6.35;2.70;;;;;;;17.78;78.71;102209.34;7391812;19;20030;-62
2023/09/06 04:45:47;;;;;;;8.57;3.28;;;;;;;17.75;78.65;102214.09;7391426;19;20011;-62
2023/09/06 04:48:18;;;;;;;5.72;3.00;;;;;;;17.75;78.67;102209.59;7393522;19;20369;-62
2023/09/06 04:50:46;;;;;;;7.03;3.03;;;;;;;17.75;78.85;102214.09;7393492;19;20015;-62
2023/09/06 04:53:17;;;;;;;4.40;2.90;;;;;;;17.76;78.66;102213.09;7392662;19;20027;-62
2023/09/06 04:55:47;;;;;;;6.00;2.95;;;;;;;17.57;79.05;102219.06;7393369;19;20090;-62
2023/09/06 04:58:14;;;;;;;5.40;2.78;;;;;;;17.30;80.30;102222.09;7393597;19;20014;-62
2023/09/06 05:00:44;;;;;;;6.65;3.25;;;;;;;17.26;80.96;102221.50;7393671;19;20369;-62
2023/09/06 05:03:11;;;;;;;6.05;2.83;;;;;;;17.35;80.65;102224.41;7390966;19;20022;-62
2023/09/06 05:05:41;;;;;;;4.65;2.90;;;;;;;17.48;80.02;102219.81;7392465;19;20028;-62
2023/09/06 05:08:09;;;;;;;6.18;3.15;;;;;;;17.39;80.54;102216.00;7394509;19;20022;-62
2023/09/06 05:10:39;;;;;;;6.40;3.25;;;;;;;17.36;80.70;102221.63;7395302;19;20019;-63
2023/09/06 05:13:11;;;;;;;6.97;3.50;;;;;;;17.31;80.92;102226.47;7393583;19;20029;-62
2023/09/06 05:15:39;;;;;;;8.10;3.87;;;;;;;17.43;80.77;102222.81;7395499;19;20036;-61
2023/09/06 05:18:10;;;;;;;5.60;3.40;;;;;;;17.40;80.71;102230.25;7395383;19;20407;-62
2023/09/06 05:20:39;;;;;;;5.80;3.60;;;;;;;17.61;79.88;102236.59;7394640;19;20022;-62
2023/09/06 05:23:06;;;;;;;5.85;2.85;;;;;;;17.72;79.35;102241.09;7392192;19;20033;-62
2023/09/06 05:25:34;;;;;;;6.43;3.10;;;;;;;17.82;79.24;102238.53;7392544;19;20018;-62
2023/09/06 05:28:05;;;;;;;5.45;2.80;;;;;;;17.86;79.00;102243.56;7391308;19;20018;-62
2023/09/06 05:30:38;;;;;;;5.90;3.28;;;;;;;17.89;79.07;102242.44;7394091;19;20022;-62
2023/09/06 05:33:06;;;;;;;7.75;3.55;;;;;;;17.78;79.74;102241.50;7392499;19;20027;-62
2023/09/06 05:35:34;;;;;;;5.65;3.38;;;;;;;17.76;80.17;102245.25;7394140;19;20035;-62
2023/09/06 05:38:05;;;;;;;7.43;3.55;;;;;;;17.89;79.72;102245.13;7391206;19;20042;-62
2023/09/06 05:40:34;;;;;;;5.65;3.70;;;;;;;17.71;80.51;102247.44;7391752;19;20027;-62
2023/09/06 05:43:03;;;;;;;5.70;3.33;;;;;;;17.59;81.12;102249.28;7390116;19;20048;-62
2023/09/06 05:45:31;;;;;;;5.90;3.90;;;;;;;17.55;81.47;102255.81;7391585;19;20043;-62
2023/09/06 05:47:58;;;;;;;6.38;3.85;;;;;;;17.52;81.89;102258.75;7391386;19;20018;-62
2023/09/06 05:50:29;;;;;;;7.57;3.80;;;;;;;17.53;82.40;102255.09;7389711;19;20038;-62
2023/09/06 05:52:56;;;;;;;6.60;3.20;;;;;;;17.68;82.04;102255.72;7388259;19;20019;-62
2023/09/06 05:55:24;;;;;;;4.40;3.03;;;;;;;17.92;80.58;102258.28;7389837;19;20039;-62
2023/09/06 05:57:51;;;;;;;8.20;4.20;;;;;;;17.86;81.08;102253.41;7391114;19;20029;-62
2023/09/06 06:00:21;;;;;;;7.30;3.80;;;;;;;18.01;80.97;102260.22;7390905;19;20011;-62
2023/09/06 06:02:49;;;;;;;5.55;3.30;;;;;;;18.15;80.10;102267.97;7389693;19;20023;-62
2023/09/06 06:05:18;;;;;;;7.13;3.05;;;;;;;18.07;80.81;102259.72;7389400;19;20124;-62
2023/09/06 06:07:46;;;;;;;6.88;3.50;;;;;;;18.03;80.95;102264.47;7391030;19;20019;-62
2023/09/06 06:10:13;;;;;;;7.97;3.78;;;;;;;18.14;80.56;102270.81;7390405;19;20027;-63
2023/09/06 06:12:41;;;;;;;6.93;3.28;;;;;;;18.22;80.60;102262.97;7390324;19;20014;-62
2023/09/06 06:15:12;;;;;;;9.45;3.30;;;;;;;18.29;80.34;102256.13;7390620;19;20019;-62
2023/09/06 06:17:40;;;;;;;3.88;2.88;;;;;;;18.29;80.29;102247.25;7390625;19;20543;-62
2023/09/06 06:20:10;;;;;;;5.43;3.00;;;;;;;18.33;79.90;102254.91;7390978;19;20496;-62
2023/09/06 06:22:39;;;;;;;6.00;2.85;;;;;;;18.33;80.34;102259.41;7388943;19;20399;-62
2023/09/06 06:25:10;;;;;;;5.13;3.10;;;;;;;18.43;80.25;102257.66;7391236;19;20011;-61
2023/09/06 06:27:38;;;;;;;5.85;2.70;;;;;;;18.51;79.95;102261.44;7392202;19;20102;-61
2023/09/06 06:30:07;;;;;;;5.55;2.95;;;;;;;18.58;80.04;102264.44;7391235;19;20043;-61
2023/09/06 06:32:35;;;;;;;8.05;3.45;;;;;;;18.66;79.95;102263.78;7389607;19;20345;-61
2023/09/06 06:35:06;;;;;;;5.03;2.92;;;;;;;18.72;79.77;102260.63;7388663;19;20018;-62
2023/09/06 06:37:34;;;;;;;7.55;3.58;;;;;;;18.73;80.05;102259.63;7390503;19;20501;-62
2023/09/06 06:40:02;;;;;;;9.15;3.42;;;;;;;18.72;79.94;102253.44;7390263;19;20014;-62
2023/09/06 06:42:39;;;;;;;5.57;3.17;;;;;;;18.84;79.86;102259.59;7389681;19;20047;-62
2023/09/06 06:45:07;;;;;;;9.15;3.25;;;;;;;18.88;80.17;102265.53;7389804;19;20031;-62
2023/09/06 06:47:34;;;;;;;6.82;3.30;;;;;;;18.92;80.02;102262.47;7389901;19;20359;-62
2023/09/06 06:50:06;;;;;;;5.85;2.97;;;;;;;19.05;79.69;102272.19;7390054;19;20011;-62
2023/09/06 06:52:36;;;;;;;7.03;2.92;;;;;;;19.11;79.66;102268.94;7389783;19;20488;-63
2023/09/06 06:55:04;;;;;;;8.63;3.90;;;;;;;19.19;79.82;102278.09;7388813;19;20083;-62
2023/09/06 06:57:33;;;;;;;8.90;3.85;;;;;;;19.26;79.42;102274.84;7390466;19;20019;-62
2023/09/06 07:00:05;;;;;;;8.73;3.83;;;;;;;19.31;79.74;102275.28;7394111;19;20034;-62
2023/09/06 07:02:34;;;;;;;10.10;3.88;;;;;;;19.33;79.81;102281.41;7396403;19;20022;-62
2023/09/06 07:05:03;;;;;;;8.68;4.13;;;;;;;19.38;79.81;102274.63;7394791;19;20018;-62
2023/09/06 07:07:30;;;;;;;8.55;3.75;;;;;;;19.46;80.14;102280.22;7396949;19;20369;-62
2023/09/06 07:09:58;;;;;;;8.48;3.75;;;;;;;19.55;79.47;102283.06;7395130;19;20022;-63
2023/09/06 07:12:25;;;;;;;11.00;3.67;;;;;;;19.59;79.38;102279.97;7396168;19;20638;-63
2023/09/06 07:14:53;;;;;;;8.80;3.80;;;;;;;19.62;79.90;102282.44;7393783;19;20066;-62
2023/09/06 07:17:20;;;;;;;9.77;3.55;;;;;;;19.70;79.60;102281.75;7396927;19;20024;-62
2023/09/06 07:19:48;;;;;;;7.25;3.90;;;;;;;19.77;79.19;102282.91;7397151;19;20042;-62
2023/09/06 07:22:15;;;;;;;7.82;3.78;;;;;;;19.84;79.28;102285.91;7396462;19;20010;-62
2023/09/06 07:24:43;;;;;;;9.98;4.40;;;;;;;19.91;78.89;102284.38;7393855;19;20031;-62
2023/09/06 07:27:11;;;;;;;8.00;3.50;;;;;;;20.02;78.65;102286.09;7396751;19;20025;-62
2023/09/06 07:29:39;;;;;;;8.43;3.63;;;;;;;20.04;78.62;102295.75;7396756;19;20026;-62
2023/09/06 07:32:07;;;;;;;6.40;3.58;;;;;;;20.10;78.40;102289.81;7395843;19;20500;-62
2023/09/06 07:34:34;;;;;;;9.93;3.40;;;;;;;20.17;77.50;102288.25;7391974;19;20023;-62
2023/09/06 07:37:02;;;;;;;11.32;3.70;;;;;;;20.20;77.65;102297.91;7394099;19;20472;-62
2023/09/06 07:39:29;;;;;;;7.90;3.55;;;;;;;20.28;76.98;102297.22;7394251;19;20034;-62
2023/09/06 07:41:57;;;;;;;7.07;3.50;;;;;;;20.34;76.43;102297.53;7394781;19;20014;-62
2023/09/06 07:44:29;;;;;;;8.55;3.78;;;;;;;20.38;76.58;102301.63;7393217;19;20036;-62
2023/09/06 07:46:56;;;;;;;6.18;2.88;;;;;;;20.41;76.13;102297.78;7396290;19;20025;-62
2023/09/06 07:49:24;;;;;;;5.85;3.15;;;;;;;20.47;76.19;102293.72;7395590;19;20010;-62
2023/09/06 07:51:57;;;;;;;7.38;3.10;;;;;;;20.56;76.11;102300.97;7396001;19;20021;-62
2023/09/06 07:54:24;;;;;;;7.35;2.72;;;;;;;20.57;76.24;102305.38;7391775;19;20035;-62
2023/09/06 07:56:52;;;;;;;9.25;2.90;;;;;;;20.59;75.83;102301.53;7396035;19;20018;-62
2023/09/06 07:59:22;;;;;;;6.57;2.80;;;;;;;20.67;75.87;102308.91;7395970;19;20551;-62
2023/09/06 08:01:50;;;;;;;7.05;3.05;;;;;;;20.69;74.91;102305.09;7395499;19;20011;-63
2023/09/06 08:04:19;;;;;;;4.57;2.70;;;;;;;20.80;74.65;102305.94;7391475;19;20499;-63
2023/09/06 08:06:47;;;;;;;8.30;2.90;;;;;;;20.84;74.46;102305.53;7395276;19;20006;-63
2023/09/06 08:09:14;;;;;;;7.38;2.70;;;;;;;20.96;74.03;102303.53;7394187;19;20423;-63
2023/09/06 08:11:42;;;;;;;9.13;2.65;;;;;;;21.03;74.30;102304.66;7394708;19;20372;-62
2023/09/06 08:14:09;;;;;;;6.35;2.47;;;;;;;21.08;73.78;102302.38;7393770;19;20352;-61
2023/09/06 08:16:37;;;;;;;6.57;2.83;;;;;;;21.15;73.54;102306.19;7395282;19;20011;-62
2023/09/06 08:19:04;;;;;;;8.45;3.22;;;;;;;21.14;73.97;102304.50;7395699;19;20098;-62
2023/09/06 08:21:32;;;;;;;7.68;3.05;;;;;;;21.20;73.27;102302.22;7395895;19;20007;-62
2023/09/06 08:24:02;;;;;;;9.13;2.75;;;;;;;21.28;72.49;102302.34;7391285;19;20074;-62
2023/09/06 08:26:29;;;;;;;7.22;2.85;;;;;;;21.32;72.39;102303.75;7394332;19;20098;-62
2023/09/06 08:28:57;;;;;;;5.32;2.60;;;;;;;21.41;72.64;102308.31;7392676;19;20022;-62
2023/09/06 08:31:24;;;;;;;5.30;2.42;;;;;;;21.46;72.36;102302.47;7394767;19;20014;-62
2023/09/06 08:33:52;;;;;;;5.43;2.10;;;;;;;21.56;71.68;102306.84;7392308;19;20011;-62
2023/09/06 08:36:20;;;;;;;8.20;2.45;;;;;;;21.62;72.18;102308.09;7394114;19;20022;-63
2023/09/06 08:38:48;;;;;;;8.52;4.03;;;;;;;21.69;71.79;102302.97;7394653;19;20024;-63
2023/09/06 08:41:16;;;;;;;6.95;2.72;;;;;;;21.78;71.06;102307.44;7394440;19;20043;-62
2023/09/06 08:43:44;;;;;;;185.65;129.38;;;;;;;21.86;70.91;102305.72;7391839;19;20086;-63
2023/09/06 08:46:21;;;;;;;231.48;149.98;;;;;;;21.87;70.79;102303.88;7393546;19;20029;-63
2023/09/06 08:48:49;;;;;;;17.48;9.43;;;;;;;21.84;70.94;102296.94;7394450;19;20039;-63
2023/09/06 08:51:19;;;;;;;9.80;4.25;;;;;;;21.96;70.43;102307.53;7394354;19;20025;-63
2023/09/06 08:53:48;;;;;;;9.05;2.30;;;;;;;22.02;70.58;102307.78;7392682;19;20043;-63
2023/09/06 08:56:16;;;;;;;7.80;2.45;;;;;;;22.07;69.75;102305.47;7394205;19;20098;-63
2023/09/06 08:58:44;;;;;;;4.93;2.13;;;;;;;22.13;69.83;102306.69;7394065;19;20030;-63
2023/09/06 09:01:11;;;;;;;5.85;2.47;;;;;;;22.09;69.91;102306.19;7392320;19;20025;-63
2023/09/06 09:03:38;;;;;;;6.43;2.67;;;;;;;22.18;69.48;102309.00;7392308;19;20025;-63
2023/09/06 09:06:09;;;;;;;6.18;2.40;;;;;;;22.31;69.83;102306.78;7393122;19;20022;-63
2023/09/06 09:08:37;;;;;;;4.65;2.35;;;;;;;22.38;69.81;102306.00;7391607;19;20022;-63
2023/09/06 09:11:12;;;;;;;11.57;2.53;;;;;;;22.45;70.22;102311.66;7392107;19;20019;-63
2023/09/06 09:13:40;;;;;;;8.45;2.50;;;;;;;22.48;69.71;102305.13;7391505;19;20480;-63
2023/09/06 09:16:09;;;;;;;9.60;2.50;;;;;;;22.46;69.78;102304.41;7393307;19;20035;-63
2023/09/06 09:18:38;;;;;;;12.02;2.33;;;;;;;22.35;70.18;102308.16;7392656;19;20018;-63
2023/09/06 09:21:11;;;;;;;6.40;2.35;;;;;;;22.39;70.33;102305.00;7391154;19;20022;-63
2023/09/06 09:23:53;;;;;;;8.10;2.45;;;;;;;22.55;69.65;102311.56;7389644;19;20039;-63
2023/09/06 09:26:21;;;;;;;8.50;2.60;;;;;;;22.55;69.98;102306.19;7388596;19;20014;-67
2023/09/06 09:28:49;;;;;;;6.07;2.40;;;;;;;22.63;69.01;102303.59;7390862;19;20030;-63
2023/09/06 09:31:17;;;;;;;9.88;2.65;;;;;;;22.81;68.91;102311.66;7390701;19;20078;-64
2023/09/06 09:33:50;;;;;;;8.05;2.58;;;;;;;22.87;69.00;102311.91;7388954;19;20025;-64
2023/09/06 09:36:18;;;;;;;9.23;2.88;;;;;;;22.82;69.17;102311.53;7393534;19;20047;-64
2023/09/06 09:38:50;;;;;;;4.70;2.20;;;;;;;22.82;69.19;102310.69;7391224;19;20019;-64
2023/09/06 09:41:19;;;;;;;7.35;2.20;;;;;;;22.97;67.84;102308.28;7392392;19;20022;-63
2023/09/06 09:43:47;;;;;;;5.18;1.90;;;;;;;23.05;66.94;102303.81;7388844;19;20014;-63
2023/09/06 09:46:27;;;;;;;4.38;1.80;;;;;;;23.17;66.51;102307.09;7391985;19;20019;-63
2023/09/06 09:48:59;;;;;;;4.72;2.00;;;;;;;23.08;66.37;102314.28;7392089;19;20488;-63
2023/09/06 09:51:27;;;;;;;8.20;2.10;;;;;;;23.07;66.54;102304.47;7392302;19;20046;-63
2023/09/06 09:53:55;;;;;;;5.10;1.85;;;;;;;23.28;66.27;102311.41;7390114;19;20025;-63
2023/09/06 09:56:23;;;;;;;3.70;1.70;;;;;;;23.39;65.96;102312.97;7391743;19;20039;-63
2023/09/06 09:58:52;;;;;;;3.10;1.60;;;;;;;23.36;66.36;102308.75;7391430;19;20038;-63
2023/09/06 10:01:20;;;;;;;8.45;1.80;;;;;;;23.33;66.07;102301.78;7390923;19;20081;-63
2023/09/06 10:03:49;;;;;;;4.45;1.55;;;;;;;23.30;65.62;102302.13;7388279;19;20089;-63
2023/09/06 10:06:18;;;;;;;5.40;1.75;;;;;;;23.41;65.37;102303.72;7391267;19;20489;-62
2023/09/06 10:08:47;;;;;;;4.45;1.90;;;;;;;23.50;65.12;102300.03;7391170;19;20014;-62
2023/09/06 10:11:17;;;;;;;4.47;2.08;;;;;;;23.43;65.05;102301.72;7391164;19;20022;-62
2023/09/06 10:13:46;;;;;;;6.53;2.30;;;;;;;23.55;64.83;102292.31;7389905;19;20092;-62
2023/09/06 10:16:14;;;;;;;6.00;2.10;;;;;;;23.57;64.55;102297.53;7390714;19;20039;-62
2023/09/06 10:18:42;;;;;;;6.47;1.83;;;;;;;23.63;64.52;102296.91;7391038;19;20022;-63
2023/09/06 10:21:11;;;;;;;6.18;1.83;;;;;;;23.81;64.32;102296.84;7390764;19;20025;-63
2023/09/06 10:23:42;;;;;;;5.88;1.85;;;;;;;23.74;64.30;102298.53;7387646;19;20122;-63
2023/09/06 10:26:10;;;;;;;5.53;2.30;;;;;;;23.70;63.95;102297.16;7389070;19;20085;-63
2023/09/06 10:28:38;;;;;;;3.40;1.40;;;;;;;23.92;63.51;102299.25;7390694;19;20040;-62
2023/09/06 10:31:08;;;;;;;4.18;1.80;;;;;;;24.14;63.22;102296.97;7390679;19;20026;-63
2023/09/06 10:33:36;;;;;;;6.88;1.73;;;;;;;24.13;63.03;102298.84;7389497;19;20022;-62
2023/09/06 10:36:14;;;;;;;5.65;1.85;;;;;;;24.06;63.31;102298.63;7396459;19;20026;-62
2023/09/06 10:38:58;;;;;;;6.55;1.90;;;;;;;24.11;62.95;102298.13;7398372;19;20480;-62
2023/09/06 10:41:26;;;;;;;;;;;;;;;23.94;62.68;102294.53;7398453;19;20025;-62
2023/09/06 10:44:07;;;;;;;4.60;1.80;;;;;;;24.14;62.92;102288.84;7395540;19;19947;-62
2023/09/06 10:46:36;;;;;;;6.00;1.77;;;;;;;24.25;61.97;102288.53;7397561;19;20022;-62
2023/09/06 10:49:25;;;;;;;5.93;1.60;;;;;;;24.36;61.09;102299.06;7396285;19;20033;-62
2023/09/06 10:52:09;;;;;;;5.15;1.80;;;;;;;24.25;61.65;102296.66;7397845;19;20038;-62
2023/09/06 10:54:41;;;;;;;6.60;1.83;;;;;;;24.47;60.57;102289.81;7394155;19;20496;-62
2023/09/06 10:57:16;;;;;;;9.57;6.07;;;;;;;24.41;60.35;102290.47;7397528;19;20010;-61
2023/09/06 10:59:45;;;;;;;6.00;2.20;;;;;;;24.59;59.89;102284.91;7396314;19;20022;-61
2023/09/06 11:02:19;;;;;;;5.25;1.60;;;;;;;24.63;60.33;102286.28;7397026;19;20480;-62
2023/09/06 11:05:03;;;;;;;5.28;1.38;;;;;;;24.78;59.34;102287.28;7393551;19;20022;-62
2023/09/06 11:07:44;;;;;;;4.97;1.70;;;;;;;24.78;58.88;102282.72;7397268;19;20047;-63
2023/09/06 11:10:24;;;;;;;3.25;1.40;;;;;;;24.86;59.17;102278.31;7397840;19;20014;-63
2023/09/06 11:12:55;;;;;;;5.53;1.60;;;;;;;24.73;59.54;102285.09;7395541;19;20521;-63
2023/09/06 11:15:23;;;;;;;6.15;1.85;;;;;;;24.61;59.20;102285.56;7395490;19;20033;-62
2023/09/06 11:17:58;;;;;;;5.25;1.70;;;;;;;24.62;59.52;102282.72;7396872;19;20018;-63
2023/09/06 11:20:26;;;;;;;4.55;1.55;;;;;;;24.87;59.83;102280.00;7397351;19;20043;-62
2023/09/06 11:22:57;;;;;;;4.25;1.60;;;;;;;25.00;58.57;102280.34;7395314;19;20086;-62
2023/09/06 11:25:26;;;;;;;5.60;1.60;;;;;;;25.08;58.80;102274.91;7395129;19;20087;-62
2023/09/06 11:27:56;;;;;;;3.33;1.40;;;;;;;25.24;57.83;102274.06;7396254;19;20025;-62
2023/09/06 11:30:26;;;;;;;3.30;1.42;;;;;;;25.07;57.72;102272.34;7395029;19;20010;-62
2023/09/06 11:32:55;;;;;;;3.67;1.58;;;;;;;25.24;57.11;102268.66;7395863;19;20022;-62
2023/09/06 11:35:31;;;;;;;2.65;1.33;;;;;;;25.33;56.26;102275.72;7396707;19;20019;-62